createdAt,value
2019-06-15T04:00:54.759Z,17.05
2019-06-15T04:01:54.934Z,17.06
2019-06-15T04:02:55.107Z,17.01
2019-06-15T04:03:55.288Z,17.14
2019-06-15T04:04:55.459Z,17.15
2019-06-15T04:05:55.633Z,17.11
2019-06-15T04:06:55.809Z,17.19
2019-06-15T04:07:55.976Z,17.19
2019-06-15T04:08:56.152Z,17.22
2019-06-15T04:09:56.325Z,17.16
2019-06-15T04:10:56.498Z,17.11
2019-06-15T04:11:56.673Z,17.23
2019-06-15T04:12:56.846Z,17.16
2019-06-15T04:13:57.024Z,17.11
2019-06-15T04:14:57.203Z,17.14
2019-06-15T04:15:57.371Z,17.20
2019-06-15T04:16:57.546Z,17.19
2019-06-15T04:17:57.720Z,17.19
2019-06-15T04:18:57.892Z,17.20
2019-06-15T04:19:58.067Z,17.14
2019-06-15T04:20:58.242Z,17.15
2019-06-15T04:21:58.423Z,17.14
2019-06-15T04:22:58.591Z,17.04
2019-06-15T04:23:58.765Z,17.14
2019-06-15T04:24:58.940Z,16.99
2019-06-15T04:25:59.123Z,17.01
2019-06-15T04:26:59.290Z,17.04
2019-06-15T04:27:59.463Z,16.96
2019-06-15T04:28:59.635Z,16.94
2019-06-15T04:29:59.810Z,16.93
2019-06-15T04:30:59.983Z,17.08
2019-06-15T04:32:00.162Z,17.02
2019-06-15T04:33:00.332Z,17.04
2019-06-15T04:34:00.507Z,17.08
2019-06-15T04:35:00.683Z,16.99
2019-06-15T04:36:00.863Z,17.05
2019-06-15T04:37:01.027Z,17.14
2019-06-15T04:38:01.202Z,17.04
2019-06-15T04:39:01.372Z,17.08
2019-06-15T04:40:01.547Z,17.15
2019-06-15T04:41:01.827Z,17.20
2019-06-15T04:42:01.895Z,17.31
2019-06-15T04:43:02.069Z,17.31
2019-06-15T04:44:02.242Z,17.23
2019-06-15T04:45:02.419Z,17.33
2019-06-15T04:46:02.591Z,17.41
2019-06-15T04:47:02.766Z,17.39
2019-06-15T04:48:02.942Z,17.38
2019-06-15T04:49:03.159Z,17.39
2019-06-15T04:50:03.287Z,17.39
2019-06-15T04:51:03.468Z,17.56
2019-06-15T04:52:03.661Z,17.59
2019-06-15T04:53:03.806Z,17.57
2019-06-15T04:54:03.980Z,17.60
2019-06-15T04:55:04.154Z,17.56
2019-06-15T04:56:04.330Z,17.68
2019-06-15T04:57:04.501Z,17.71
2019-06-15T04:58:04.676Z,17.74
2019-06-15T04:59:04.852Z,17.83
2019-06-15T05:00:05.028Z,17.86
2019-06-15T05:01:05.197Z,17.92
2019-06-15T05:02:05.376Z,17.92
2019-06-15T05:03:05.544Z,18.01
2019-06-15T05:04:05.718Z,18.00
2019-06-15T05:05:05.894Z,17.97
2019-06-15T05:06:06.067Z,17.89
2019-06-15T05:07:06.241Z,17.98
2019-06-15T05:08:06.415Z,17.89
2019-06-15T05:09:06.587Z,17.90
2019-06-15T05:10:06.759Z,17.97
2019-06-15T05:11:06.934Z,18.04
2019-06-15T05:12:07.106Z,18.08
2019-06-15T05:13:07.281Z,18.11
2019-06-15T05:14:07.458Z,18.10
2019-06-15T05:15:07.632Z,18.05
2019-06-15T05:16:07.808Z,18.10
2019-06-15T05:17:07.992Z,18.11
2019-06-15T05:18:08.157Z,18.15
2019-06-15T05:19:08.331Z,18.08
2019-06-15T05:20:08.505Z,18.11
2019-06-15T05:21:08.682Z,18.25
2019-06-15T05:22:08.854Z,18.15
2019-06-15T05:23:09.032Z,18.28
2019-06-15T05:24:09.206Z,18.37
2019-06-15T05:25:09.383Z,18.44
2019-06-15T05:26:09.553Z,18.47
2019-06-15T05:27:09.728Z,18.56
2019-06-15T05:28:09.901Z,18.50
2019-06-15T05:29:10.076Z,18.59
2019-06-15T05:30:10.254Z,18.66
2019-06-15T05:31:10.432Z,18.62
2019-06-15T05:32:10.597Z,18.65
2019-06-15T05:33:10.771Z,18.75
2019-06-15T05:34:10.953Z,18.80
2019-06-15T05:35:11.120Z,18.92
2019-06-15T05:36:11.297Z,19.04
2019-06-15T05:37:11.467Z,19.09
2019-06-15T05:38:11.644Z,19.26
2019-06-15T05:39:11.821Z,19.26
2019-06-15T05:40:11.987Z,19.31
2019-06-15T05:41:12.211Z,19.39
2019-06-15T05:42:12.338Z,19.48
2019-06-15T05:43:12.513Z,19.56
2019-06-15T05:44:12.686Z,19.56
2019-06-15T05:45:12.863Z,19.74
2019-06-15T05:46:13.037Z,19.79
2019-06-15T05:47:13.212Z,19.73
2019-06-15T05:48:13.408Z,19.91
2019-06-15T05:49:13.560Z,19.86
2019-06-15T05:50:13.737Z,20.02
2019-06-15T05:51:13.917Z,20.11
2019-06-15T05:52:14.107Z,20.11
2019-06-15T05:53:14.263Z,20.25
2019-06-15T05:54:14.439Z,20.44
2019-06-15T05:55:14.613Z,20.41
2019-06-15T05:56:14.788Z,20.36
2019-06-15T05:57:21.521Z,20.47
2019-06-15T05:58:15.138Z,20.51
2019-06-15T05:59:15.313Z,20.56
2019-06-15T06:00:15.488Z,20.47
2019-06-15T06:01:15.665Z,20.59
2019-06-15T06:02:15.869Z,20.60
2019-06-15T06:03:16.017Z,20.59
2019-06-15T06:04:16.194Z,20.69
2019-06-15T06:05:16.365Z,20.75
2019-06-15T06:06:16.545Z,20.77
2019-06-15T06:07:16.716Z,20.70
2019-06-15T06:08:16.892Z,20.84
2019-06-15T06:09:17.066Z,20.88
2019-06-15T06:10:17.244Z,20.97
2019-06-15T06:11:17.417Z,20.99
2019-06-15T06:12:17.592Z,21.09
2019-06-15T06:13:17.779Z,21.12
2019-06-15T06:14:17.943Z,21.24
2019-06-15T06:15:18.119Z,21.32
2019-06-15T06:16:18.295Z,21.27
2019-06-15T06:17:18.469Z,21.39
2019-06-15T06:18:18.647Z,21.50
2019-06-15T06:19:18.819Z,21.43
2019-06-15T06:20:18.999Z,21.60
2019-06-15T06:21:19.172Z,21.54
2019-06-15T06:22:19.345Z,21.58
2019-06-15T06:23:19.518Z,21.62
2019-06-15T06:24:19.695Z,21.66
2019-06-15T06:25:19.869Z,21.72
2019-06-15T06:26:20.043Z,21.76
2019-06-15T06:27:20.221Z,21.79
2019-06-15T06:28:20.397Z,21.82
2019-06-15T06:29:20.572Z,21.80
2019-06-15T06:30:20.746Z,21.91
2019-06-15T06:31:20.928Z,21.80
2019-06-15T06:32:21.099Z,21.82
2019-06-15T06:33:21.292Z,21.80
2019-06-15T06:34:21.460Z,21.83
2019-06-15T06:35:21.626Z,21.95
2019-06-15T06:36:21.801Z,21.98
2019-06-15T06:37:21.976Z,22.00
2019-06-15T06:38:22.155Z,22.06
2019-06-15T06:39:22.328Z,22.15
2019-06-15T06:40:22.511Z,22.11
2019-06-15T06:41:22.683Z,22.29
2019-06-15T06:42:22.855Z,22.11
2019-06-15T06:43:23.039Z,22.26
2019-06-15T06:44:23.207Z,22.07
2019-06-15T06:45:23.381Z,22.26
2019-06-15T06:46:23.560Z,22.33
2019-06-15T06:47:23.731Z,22.26
2019-06-15T06:48:23.908Z,22.26
2019-06-15T06:49:24.082Z,22.25
2019-06-15T06:50:24.256Z,22.25
2019-06-15T06:51:24.431Z,22.15
2019-06-15T06:52:24.606Z,22.29
2019-06-15T06:53:24.781Z,22.28
2019-06-15T06:54:24.954Z,22.30
2019-06-15T06:55:25.136Z,22.25
2019-06-15T06:56:25.311Z,22.23
2019-06-15T06:57:25.483Z,22.29
2019-06-15T06:58:25.657Z,22.30
2019-06-15T06:59:25.829Z,22.43
2019-06-15T07:00:26.001Z,22.48
2019-06-15T07:01:26.177Z,22.54
2019-06-15T07:02:26.350Z,22.38
2019-06-15T07:03:26.525Z,22.55
2019-06-15T07:04:26.700Z,22.48
2019-06-15T07:05:26.881Z,22.48
2019-06-15T07:06:27.053Z,22.53
2019-06-15T07:07:27.231Z,22.65
2019-06-15T07:08:27.396Z,22.57
2019-06-15T07:09:27.579Z,22.62
2019-06-15T07:10:27.754Z,22.51
2019-06-15T07:11:27.923Z,22.59
2019-06-15T07:12:28.091Z,22.57
2019-06-15T07:13:28.265Z,22.54
2019-06-15T07:14:28.454Z,22.47
2019-06-15T07:15:28.621Z,22.59
2019-06-15T07:16:28.798Z,22.53
2019-06-15T07:17:28.973Z,22.76
2019-06-15T07:18:29.150Z,22.76
2019-06-15T07:19:29.322Z,22.84
2019-06-15T07:20:29.497Z,22.94
2019-06-15T07:21:29.670Z,23.02
2019-06-15T07:22:29.847Z,23.03
2019-06-15T07:23:31.969Z,23.12
2019-06-15T07:24:30.201Z,23.10
2019-06-15T07:25:30.372Z,23.08
2019-06-15T07:26:30.547Z,23.09
2019-06-15T07:27:30.722Z,23.13
2019-06-15T07:28:30.915Z,23.03
2019-06-15T07:29:31.072Z,23.17
2019-06-15T07:30:31.288Z,23.06
2019-06-15T07:31:31.420Z,23.10
2019-06-15T07:32:31.594Z,23.12
2019-06-15T07:33:31.772Z,23.21
2019-06-15T07:34:31.952Z,23.39
2019-06-15T07:35:32.113Z,23.36
2019-06-15T07:36:32.302Z,23.51
2019-06-15T07:37:32.476Z,23.51
2019-06-15T07:38:32.658Z,23.59
2019-06-15T07:39:32.830Z,23.56
2019-06-15T07:40:33.005Z,23.56
2019-06-15T07:41:33.182Z,23.58
2019-06-15T07:42:33.359Z,23.61
2019-06-15T07:43:33.532Z,23.63
2019-06-15T07:44:33.715Z,23.65
2019-06-15T07:45:33.890Z,23.59
2019-06-15T07:46:34.083Z,23.71
2019-06-15T07:47:34.238Z,23.71
2019-06-15T07:48:34.415Z,23.76
2019-06-15T07:49:34.590Z,23.81
2019-06-15T07:50:34.767Z,23.92
2019-06-15T07:51:34.940Z,24.02
2019-06-15T07:52:35.117Z,24.06
2019-06-15T07:53:35.301Z,24.05
2019-06-15T07:54:36.296Z,24.16
2019-06-15T07:55:35.644Z,24.28
2019-06-15T07:56:35.828Z,24.26
2019-06-15T07:57:35.986Z,24.32
2019-06-15T07:58:36.164Z,24.23
2019-06-15T07:59:36.339Z,24.26
2019-06-15T08:00:36.515Z,24.29
2019-06-15T08:01:36.691Z,24.28
2019-06-15T08:02:36.870Z,24.39
2019-06-15T08:03:37.044Z,24.26
2019-06-15T08:04:37.219Z,24.38
2019-06-15T08:05:37.389Z,24.55
2019-06-15T08:06:37.574Z,24.54
2019-06-15T08:07:37.748Z,24.65
2019-06-15T08:08:37.933Z,24.81
2019-06-15T08:09:38.103Z,24.88
2019-06-15T08:10:38.280Z,24.86
2019-06-15T08:11:38.452Z,24.99
2019-06-15T08:12:38.630Z,24.93
2019-06-15T08:13:38.807Z,25.04
2019-06-15T08:14:38.997Z,25.01
2019-06-15T08:15:39.149Z,25.06
2019-06-15T08:16:39.327Z,25.11
2019-06-15T08:17:39.504Z,25.13
2019-06-15T08:18:39.679Z,24.98
2019-06-15T08:19:39.856Z,24.86
2019-06-15T08:20:40.039Z,24.74
2019-06-15T08:21:40.204Z,24.80
2019-06-15T08:22:40.375Z,24.86
2019-06-15T08:23:40.532Z,25.06
2019-06-15T08:24:40.749Z,25.29
2019-06-15T08:25:40.880Z,25.44
2019-06-15T08:26:41.053Z,25.85
2019-06-15T08:27:41.226Z,25.93
2019-06-15T08:28:41.394Z,25.80
2019-06-15T08:29:41.569Z,25.85
2019-06-15T08:30:41.775Z,25.98
2019-06-15T08:31:41.914Z,25.98
2019-06-15T08:32:42.092Z,26.33
2019-06-15T08:33:42.345Z,26.34
2019-06-15T08:34:42.422Z,26.31
2019-06-15T08:35:42.580Z,26.38
2019-06-15T08:36:42.761Z,26.52
2019-06-15T08:37:42.921Z,26.47
2019-06-15T08:38:43.093Z,26.55
2019-06-15T08:39:43.274Z,26.53
2019-06-15T08:40:43.432Z,26.66
2019-06-15T08:41:43.604Z,26.59
2019-06-15T08:42:43.873Z,26.43
2019-06-15T08:43:44.009Z,26.45
2019-06-15T08:44:44.181Z,26.40
2019-06-15T08:45:44.356Z,26.05
2019-06-15T08:46:44.532Z,25.96
2019-06-15T08:47:44.705Z,25.83
2019-06-15T08:48:44.881Z,25.35
2019-06-15T08:49:45.057Z,25.36
2019-06-15T08:50:45.258Z,25.33
2019-06-15T08:51:45.415Z,25.26
2019-06-15T08:52:45.581Z,25.18
2019-06-15T08:53:45.769Z,25.23
2019-06-15T08:54:45.933Z,25.26
2019-06-15T08:55:46.112Z,25.43
2019-06-15T08:56:46.285Z,25.54
2019-06-15T08:57:46.459Z,25.73
2019-06-15T08:58:55.007Z,25.65
2019-06-15T08:59:46.810Z,25.58
2019-06-15T09:00:46.986Z,25.41
2019-06-15T09:01:47.164Z,25.29
2019-06-15T09:02:47.336Z,25.23
2019-06-15T09:03:49.438Z,25.14
2019-06-15T09:04:47.741Z,25.17
2019-06-15T09:05:47.866Z,25.14
2019-06-15T09:06:48.075Z,25.23
2019-06-15T09:07:48.217Z,25.25
2019-06-15T09:08:48.403Z,25.29
2019-06-15T09:09:48.566Z,25.23
2019-06-15T09:10:48.747Z,25.23
2019-06-15T09:11:48.919Z,25.38
2019-06-15T09:12:49.107Z,25.54
2019-06-15T09:13:49.272Z,25.65
2019-06-15T09:14:49.451Z,25.65
2019-06-15T09:15:49.621Z,25.81
2019-06-15T09:16:49.797Z,25.90
2019-06-15T09:17:49.971Z,25.98
2019-06-15T09:18:50.146Z,26.05
2019-06-15T09:19:50.325Z,26.07
2019-06-15T09:20:50.620Z,26.22
2019-06-15T09:21:50.672Z,26.41
2019-06-15T09:22:50.849Z,26.52
2019-06-15T09:23:51.026Z,26.47
2019-06-15T09:24:51.203Z,26.58
2019-06-15T09:25:51.378Z,26.77
2019-06-15T09:26:51.552Z,26.80
2019-06-15T09:27:51.722Z,26.81
2019-06-15T09:28:51.898Z,26.83
2019-06-15T09:29:52.074Z,27.07
2019-06-15T09:30:52.249Z,26.85
2019-06-15T09:31:52.434Z,26.68
2019-06-15T09:32:52.606Z,26.33
2019-06-15T09:33:52.781Z,26.21
2019-06-15T09:34:52.954Z,25.98
2019-06-15T09:35:53.127Z,25.78
2019-06-15T09:36:53.304Z,25.62
2019-06-15T09:37:53.480Z,25.43
2019-06-15T09:38:53.655Z,25.22
2019-06-15T09:39:53.833Z,25.17
2019-06-15T09:40:54.010Z,25.07
2019-06-15T09:41:54.179Z,25.04
2019-06-15T09:42:54.356Z,25.06
2019-06-15T09:43:54.532Z,25.04
2019-06-15T09:44:54.710Z,25.07
2019-06-15T09:45:54.892Z,25.08
2019-06-15T09:46:55.064Z,25.04
2019-06-15T09:47:55.240Z,25.13
2019-06-15T09:48:55.418Z,25.31
2019-06-15T09:49:55.608Z,25.33
2019-06-15T09:50:55.774Z,25.36
2019-06-15T09:51:55.951Z,25.33
2019-06-15T09:52:56.124Z,25.48
2019-06-15T09:53:56.299Z,25.54
2019-06-15T09:54:56.478Z,25.54
2019-06-15T09:55:56.660Z,25.60
2019-06-15T09:56:56.837Z,25.54
2019-06-15T09:57:57.010Z,25.48
2019-06-15T09:58:57.187Z,25.36
2019-06-15T09:59:57.370Z,25.33
2019-06-15T10:00:57.545Z,25.33
2019-06-15T10:01:57.720Z,25.40
2019-06-15T10:02:57.901Z,25.46
2019-06-15T10:03:58.077Z,25.62
2019-06-15T10:04:58.255Z,25.48
2019-06-15T10:05:58.427Z,25.25
2019-06-15T10:06:58.602Z,24.93
2019-06-15T10:07:58.779Z,24.80
2019-06-15T10:08:58.954Z,24.55
2019-06-15T10:09:59.131Z,24.45
2019-06-15T10:10:59.309Z,24.53
2019-06-15T10:11:59.483Z,24.38
2019-06-15T10:12:59.661Z,24.47
2019-06-15T10:13:59.838Z,24.57
2019-06-15T10:15:00.026Z,24.65
2019-06-15T10:16:00.183Z,24.55
2019-06-15T10:17:00.487Z,24.57
2019-06-15T10:18:00.557Z,24.88
2019-06-15T10:19:00.736Z,24.88
2019-06-15T10:20:00.911Z,25.03
2019-06-15T10:21:01.087Z,24.92
2019-06-15T10:22:01.274Z,25.08
2019-06-15T10:23:01.440Z,25.25
2019-06-15T10:24:01.607Z,25.41
2019-06-15T10:25:01.998Z,25.51
2019-06-15T10:26:01.954Z,25.44
2019-06-15T10:27:02.129Z,25.36
2019-06-15T10:28:02.297Z,25.68
2019-06-15T10:29:02.475Z,26.29
2019-06-15T10:30:02.651Z,26.38
2019-06-15T10:31:02.830Z,27.18
2019-06-15T10:32:03.007Z,27.64
2019-06-15T10:33:03.183Z,27.51
2019-06-15T10:34:03.398Z,27.74
2019-06-15T10:35:03.538Z,28.02
2019-06-15T10:36:03.720Z,28.26
2019-06-15T10:37:03.892Z,28.69
2019-06-15T10:38:04.063Z,28.75
2019-06-15T10:39:04.246Z,29.07
2019-06-15T10:40:04.414Z,29.42
2019-06-15T10:41:04.586Z,29.47
2019-06-15T10:42:04.762Z,29.61
2019-06-15T10:43:04.938Z,29.82
2019-06-15T10:44:05.118Z,29.81
2019-06-15T10:45:05.301Z,30.02
2019-06-15T10:46:05.469Z,30.27
2019-06-15T10:47:05.647Z,29.53
2019-06-15T10:48:05.831Z,28.88
2019-06-15T10:49:06.003Z,29.20
2019-06-15T10:50:06.177Z,29.75
2019-06-15T10:51:06.354Z,30.06
2019-06-15T10:52:06.532Z,30.00
2019-06-15T10:53:06.712Z,30.16
2019-06-15T10:54:06.897Z,30.28
2019-06-15T10:55:07.064Z,29.88
2019-06-15T10:56:07.241Z,29.93
2019-06-15T10:57:07.421Z,30.08
2019-06-15T10:58:07.601Z,30.19
2019-06-15T10:59:07.823Z,30.53
2019-06-15T11:00:07.955Z,30.62
2019-06-15T11:01:08.132Z,30.83
2019-06-15T11:02:08.316Z,30.91
2019-06-15T11:03:08.493Z,31.07
2019-06-15T11:04:08.672Z,31.15
2019-06-15T11:05:08.895Z,31.12
2019-06-15T11:06:09.031Z,31.33
2019-06-15T11:07:09.208Z,31.47
2019-06-15T11:08:09.389Z,31.21
2019-06-15T11:09:09.593Z,30.66
2019-06-15T11:10:09.757Z,30.80
2019-06-15T11:11:09.926Z,30.06
2019-06-15T11:12:10.103Z,29.68
2019-06-15T11:13:10.286Z,29.61
2019-06-15T11:14:10.471Z,29.63
2019-06-15T11:15:10.648Z,30.16
2019-06-15T11:16:10.884Z,30.54
2019-06-15T11:17:11.010Z,30.97
2019-06-15T11:18:11.190Z,31.29
2019-06-15T11:19:11.371Z,31.58
2019-06-15T11:20:11.553Z,31.61
2019-06-15T11:21:11.731Z,31.42
2019-06-15T11:22:11.919Z,31.39
2019-06-15T11:23:12.091Z,31.09
2019-06-15T11:24:12.278Z,31.10
2019-06-15T11:25:12.453Z,31.10
2019-06-15T11:26:12.629Z,31.49
2019-06-15T11:27:12.828Z,31.56
2019-06-15T11:28:12.996Z,31.92
2019-06-15T11:29:13.178Z,31.58
2019-06-15T11:30:14.615Z,31.58
2019-06-15T11:31:13.552Z,31.22
2019-06-15T11:32:13.778Z,31.27
2019-06-15T11:33:13.922Z,31.33
2019-06-15T11:34:14.093Z,31.33
2019-06-15T11:35:14.275Z,30.66
2019-06-15T11:36:14.457Z,30.50
2019-06-15T11:37:14.686Z,30.40
2019-06-15T11:38:14.817Z,30.72
2019-06-15T11:39:15.000Z,31.09
2019-06-15T11:40:15.193Z,31.36
2019-06-15T11:41:15.358Z,31.51
2019-06-15T11:42:15.536Z,31.10
2019-06-15T11:43:15.724Z,30.96
2019-06-15T11:44:15.903Z,31.03
2019-06-15T11:45:16.081Z,30.99
2019-06-15T11:46:16.260Z,31.17
2019-06-15T11:47:16.437Z,30.61
2019-06-15T11:48:16.630Z,30.40
2019-06-15T11:49:16.809Z,30.55
2019-06-15T11:50:16.985Z,30.85
2019-06-15T11:51:17.167Z,31.40
2019-06-15T11:52:17.346Z,31.89
2019-06-15T11:53:17.525Z,31.81
2019-06-15T11:54:17.705Z,31.87
2019-06-15T11:55:19.935Z,32.01
2019-06-15T11:56:18.071Z,32.45
2019-06-15T11:57:18.258Z,32.48
2019-06-15T11:58:18.431Z,31.90
2019-06-15T11:59:18.613Z,31.73
2019-06-15T12:00:30.753Z,31.17
2019-06-15T12:01:19.111Z,31.44
2019-06-15T12:02:19.168Z,31.02
2019-06-15T12:03:19.343Z,30.72
2019-06-15T12:04:19.527Z,30.68
2019-06-15T12:05:19.710Z,30.88
2019-06-15T12:06:19.894Z,31.39
2019-06-15T12:07:20.073Z,31.06
2019-06-15T12:08:20.255Z,31.34
2019-06-15T12:09:20.438Z,31.34
2019-06-15T12:10:20.615Z,31.54
2019-06-15T12:11:20.797Z,31.51
2019-06-15T12:12:20.983Z,31.55
2019-06-15T12:13:21.167Z,31.87
2019-06-15T12:14:21.349Z,31.81
2019-06-15T12:15:21.537Z,31.69
2019-06-15T12:16:21.715Z,31.65
2019-06-15T12:17:21.897Z,31.61
2019-06-15T12:18:22.077Z,31.40
2019-06-15T12:19:22.256Z,31.65
2019-06-15T12:20:22.438Z,31.66
2019-06-15T12:21:22.625Z,31.59
2019-06-15T12:22:22.802Z,31.61
2019-06-15T12:23:22.987Z,31.77
2019-06-15T12:24:23.166Z,32.04
2019-06-15T12:25:23.350Z,32.23
2019-06-15T12:26:23.532Z,32.43
2019-06-15T12:27:23.713Z,32.16
2019-06-15T12:28:23.896Z,32.45
2019-06-15T12:29:24.077Z,32.43
2019-06-15T12:30:24.257Z,32.41
2019-06-15T12:31:24.439Z,32.86
2019-06-15T12:32:24.621Z,33.08
2019-06-15T12:33:24.805Z,33.09
2019-06-15T12:34:24.988Z,33.08
2019-06-15T12:35:25.171Z,32.68
2019-06-15T12:36:25.356Z,32.01
2019-06-15T12:37:25.544Z,32.26
2019-06-15T12:38:25.713Z,31.59
2019-06-15T12:39:25.893Z,31.85
2019-06-15T12:40:26.077Z,32.21
2019-06-15T12:41:26.255Z,32.38
2019-06-15T12:42:26.441Z,32.00
2019-06-15T12:43:26.622Z,31.14
2019-06-15T12:44:26.806Z,30.27
2019-06-15T12:45:26.997Z,29.79
2019-06-15T12:46:27.169Z,29.82
2019-06-15T12:47:27.361Z,30.87
2019-06-15T12:48:27.528Z,30.68
2019-06-15T12:49:27.710Z,30.34
2019-06-15T12:50:27.892Z,30.30
2019-06-15T12:51:28.076Z,30.13
2019-06-15T12:52:28.262Z,29.57
2019-06-15T12:53:28.439Z,29.45
2019-06-15T12:54:28.617Z,29.86
2019-06-15T12:55:28.810Z,30.59
2019-06-15T12:56:28.997Z,30.84
2019-06-15T12:57:29.167Z,30.62
2019-06-15T12:58:29.342Z,30.63
2019-06-15T12:59:29.522Z,31.31
2019-06-15T13:00:29.707Z,31.22
2019-06-15T13:01:29.887Z,31.15
2019-06-15T13:02:30.074Z,30.80
2019-06-15T13:03:30.255Z,31.03
2019-06-15T13:04:30.453Z,31.20
2019-06-15T13:05:30.614Z,30.80
2019-06-15T13:06:30.795Z,30.10
2019-06-15T13:07:30.970Z,29.61
2019-06-15T13:08:31.151Z,29.35
2019-06-15T13:09:31.342Z,29.17
2019-06-15T13:10:31.514Z,28.67
2019-06-15T13:11:31.691Z,28.26
2019-06-15T13:12:31.873Z,29.35
2019-06-15T13:13:32.053Z,30.18
2019-06-15T13:14:32.234Z,31.03
2019-06-15T13:15:32.418Z,30.88
2019-06-15T13:16:39.472Z,30.62
2019-06-15T13:17:32.776Z,30.28
2019-06-15T13:18:32.957Z,29.78
2019-06-15T13:19:33.136Z,29.19
2019-06-15T13:20:33.319Z,28.89
2019-06-15T13:21:33.495Z,28.79
2019-06-15T13:22:33.730Z,28.44
2019-06-15T13:23:33.863Z,28.12
2019-06-15T13:24:34.040Z,27.63
2019-06-15T13:25:34.215Z,27.40
2019-06-15T13:26:34.395Z,27.27
2019-06-15T13:27:34.573Z,27.67
2019-06-15T13:28:34.757Z,27.80
2019-06-15T13:29:34.934Z,27.86
2019-06-15T13:30:35.113Z,28.23
2019-06-15T13:31:35.294Z,28.56
2019-06-15T13:32:35.472Z,29.12
2019-06-15T13:33:35.648Z,29.84
2019-06-15T13:34:35.829Z,30.39
2019-06-15T13:35:36.004Z,30.90
2019-06-15T13:36:36.190Z,31.92
2019-06-15T13:37:42.025Z,32.51
2019-06-15T13:38:36.545Z,32.41
2019-06-15T13:39:36.775Z,32.68
2019-06-15T13:40:36.905Z,32.83
2019-06-15T13:41:37.082Z,33.07
2019-06-15T13:42:37.263Z,32.46
2019-06-15T13:43:37.443Z,32.07
2019-06-15T13:44:37.626Z,31.52
2019-06-15T13:45:37.813Z,31.58
2019-06-15T13:46:37.993Z,31.73
2019-06-15T13:47:38.167Z,31.05
2019-06-15T13:48:38.352Z,30.55
2019-06-15T13:49:38.529Z,29.84
2019-06-15T13:50:38.714Z,29.13
2019-06-15T13:51:38.887Z,28.67
2019-06-15T13:52:39.111Z,28.62
2019-06-15T13:53:39.260Z,28.22
2019-06-15T13:54:39.430Z,28.07
2019-06-15T13:55:39.606Z,28.10
2019-06-15T13:56:39.802Z,28.97
2019-06-15T13:57:39.969Z,29.42
2019-06-15T13:58:40.151Z,30.21
2019-06-15T13:59:40.332Z,31.03
2019-06-15T14:00:40.515Z,31.61
2019-06-15T14:01:40.692Z,31.80
2019-06-15T14:02:40.897Z,31.58
2019-06-15T14:03:41.051Z,32.08
2019-06-15T14:04:41.273Z,32.51
2019-06-15T14:05:41.404Z,32.58
2019-06-15T14:06:41.579Z,32.77
2019-06-15T14:07:41.768Z,32.93
2019-06-15T14:08:41.945Z,33.19
2019-06-15T14:09:42.132Z,33.31
2019-06-15T14:10:42.297Z,33.22
2019-06-15T14:11:42.478Z,33.20
2019-06-15T14:12:42.672Z,32.83
2019-06-15T14:13:42.845Z,33.08
2019-06-15T14:14:43.037Z,33.15
2019-06-15T14:15:43.211Z,32.56
2019-06-15T14:16:43.392Z,32.64
2019-06-15T14:17:43.571Z,32.82
2019-06-15T14:18:43.757Z,32.08
2019-06-15T14:19:43.933Z,31.54
2019-06-15T14:20:44.113Z,32.14
2019-06-15T14:21:44.296Z,32.53
2019-06-15T14:22:44.481Z,32.85
2019-06-15T14:23:44.670Z,33.12
2019-06-15T14:24:44.836Z,33.47
2019-06-15T14:25:45.014Z,32.65
2019-06-15T14:26:45.194Z,31.76
2019-06-15T14:27:45.376Z,31.12
2019-06-15T14:28:45.559Z,30.53
2019-06-15T14:29:45.744Z,29.78
2019-06-15T14:30:45.922Z,29.34
2019-06-15T14:31:50.009Z,28.98
2019-06-15T14:32:46.284Z,29.26
2019-06-15T14:33:46.467Z,30.09
2019-06-15T14:34:46.647Z,30.78
2019-06-15T14:35:46.857Z,31.37
2019-06-15T14:36:47.010Z,31.89
2019-06-15T14:37:47.185Z,32.37
2019-06-15T14:38:47.371Z,32.56
2019-06-15T14:39:47.551Z,32.89
2019-06-15T14:40:47.730Z,33.17
2019-06-15T14:41:50.977Z,33.11
2019-06-15T14:42:48.087Z,33.08
2019-06-15T14:43:48.266Z,32.86
2019-06-15T14:44:48.469Z,32.78
2019-06-15T14:45:58.891Z,32.80
2019-06-15T14:46:48.809Z,32.75
2019-06-15T14:47:48.990Z,32.83
2019-06-15T14:48:49.185Z,32.90
2019-06-15T14:49:49.348Z,33.28
2019-06-15T14:50:49.532Z,33.61
2019-06-15T14:51:51.096Z,33.74
2019-06-15T14:52:49.903Z,34.14
2019-06-15T14:53:55.514Z,34.20
2019-06-15T14:54:50.261Z,34.24
2019-06-15T14:55:50.447Z,34.23
2019-06-15T14:56:50.626Z,33.90
2019-06-15T14:57:50.806Z,33.55
2019-06-15T14:58:50.987Z,33.14
2019-06-15T14:59:59.858Z,32.65
2019-06-15T15:00:51.339Z,32.73
2019-06-15T15:02:06.346Z,32.74
2019-06-15T15:02:51.712Z,32.78
2019-06-15T15:03:51.892Z,32.74
2019-06-15T15:04:52.078Z,32.49
2019-06-15T15:05:52.260Z,32.15
2019-06-15T15:06:52.440Z,32.07
2019-06-15T15:07:52.624Z,31.92
2019-06-15T15:08:52.809Z,31.59
2019-06-15T15:09:52.985Z,31.62
2019-06-15T15:10:53.174Z,31.71
2019-06-15T15:11:53.456Z,31.89
2019-06-15T15:12:53.539Z,31.55
2019-06-15T15:13:56.087Z,31.31
2019-06-15T15:14:56.272Z,31.36
2019-06-15T15:15:54.085Z,31.52
2019-06-15T15:16:56.850Z,31.66
2019-06-15T15:17:54.444Z,31.93
2019-06-15T15:18:56.698Z,32.18
2019-06-15T15:19:57.114Z,32.29
2019-06-15T15:20:56.468Z,32.31
2019-06-15T15:21:55.166Z,32.34
2019-06-15T15:22:56.846Z,32.37
2019-06-15T15:23:57.109Z,32.48
2019-06-15T15:24:56.128Z,32.40
2019-06-15T15:25:57.598Z,32.04
2019-06-15T15:26:56.067Z,31.92
2019-06-15T15:27:57.178Z,31.73
2019-06-15T15:28:56.683Z,31.29
2019-06-15T15:29:57.161Z,31.17
2019-06-15T15:30:56.765Z,30.53
2019-06-15T15:31:57.749Z,30.10
2019-06-15T15:32:57.305Z,30.28
2019-06-15T15:33:57.313Z,30.25
2019-06-15T15:34:57.495Z,30.51
2019-06-15T15:35:57.681Z,30.57
2019-06-15T15:36:57.858Z,30.84
2019-06-15T15:37:58.043Z,31.24
2019-06-15T15:38:58.225Z,31.36
2019-06-15T15:39:58.406Z,31.51
2019-06-15T15:40:58.587Z,31.33
2019-06-15T15:41:58.768Z,30.92
2019-06-15T15:42:58.952Z,30.77
2019-06-15T15:43:59.133Z,31.06
2019-06-15T15:44:59.337Z,31.31
2019-06-15T15:45:59.500Z,31.65
2019-06-15T15:46:59.685Z,31.62
2019-06-15T15:47:59.870Z,31.73
2019-06-15T15:49:00.050Z,31.76
2019-06-15T15:50:00.234Z,31.93
2019-06-15T15:51:00.410Z,31.94
2019-06-15T15:52:00.591Z,31.92
2019-06-15T15:53:00.775Z,31.73
2019-06-15T15:54:00.961Z,31.34
2019-06-15T15:55:01.144Z,30.88
2019-06-15T15:56:01.313Z,30.53
2019-06-15T15:57:01.529Z,30.44
2019-06-15T15:58:01.677Z,30.34
2019-06-15T15:59:01.857Z,30.08
2019-06-15T16:00:02.040Z,30.15
2019-06-15T16:01:02.214Z,30.15
2019-06-15T16:02:02.395Z,29.97
2019-06-15T16:03:02.594Z,29.81
2019-06-15T16:04:02.774Z,29.90
2019-06-15T16:05:02.942Z,29.78
2019-06-15T16:06:03.108Z,29.59
2019-06-15T16:07:03.293Z,29.47
2019-06-15T16:08:03.468Z,29.22
2019-06-15T16:09:06.043Z,29.07
2019-06-15T16:10:06.099Z,28.78
2019-06-15T16:11:04.013Z,28.54
2019-06-15T16:12:04.189Z,28.29
2019-06-15T16:13:06.524Z,27.95
2019-06-15T16:14:06.975Z,27.82
2019-06-15T16:15:07.060Z,27.90
2019-06-15T16:16:04.909Z,27.80
2019-06-15T16:17:06.713Z,28.04
2019-06-15T16:18:06.786Z,28.01
2019-06-15T16:19:06.538Z,28.00
2019-06-15T16:20:06.596Z,28.01
2019-06-15T16:21:06.431Z,28.29
2019-06-15T16:22:05.991Z,28.51
2019-06-15T16:23:07.434Z,28.70
2019-06-15T16:24:07.339Z,28.86
2019-06-15T16:25:06.949Z,28.85
2019-06-15T16:26:06.660Z,28.85
2019-06-15T16:27:07.170Z,28.85
2019-06-15T16:28:07.279Z,28.78
2019-06-15T16:29:07.161Z,28.48
2019-06-15T16:30:07.328Z,28.15
2019-06-15T16:31:13.332Z,27.96
2019-06-15T16:32:07.686Z,27.75
2019-06-15T16:33:08.117Z,27.51
2019-06-15T16:34:08.021Z,27.37
2019-06-15T16:35:08.184Z,27.33
2019-06-15T16:36:08.372Z,27.11
2019-06-15T16:37:08.535Z,27.00
2019-06-15T16:38:08.716Z,26.85
2019-06-15T16:39:08.877Z,26.88
2019-06-15T16:40:09.051Z,26.84
2019-06-15T16:41:09.236Z,27.05
2019-06-15T16:42:09.413Z,27.17
2019-06-15T16:43:09.580Z,27.17
2019-06-15T16:44:09.765Z,27.33
2019-06-15T16:45:09.935Z,27.25
2019-06-15T16:46:10.113Z,27.26
2019-06-15T16:47:10.292Z,27.44
2019-06-15T16:48:10.468Z,27.54
2019-06-15T16:49:10.647Z,27.55
2019-06-15T16:50:10.804Z,27.49
2019-06-15T16:51:10.984Z,27.55
2019-06-15T16:52:11.166Z,27.58
2019-06-15T16:53:11.338Z,27.49
2019-06-15T16:54:11.512Z,27.33
2019-06-15T16:55:11.696Z,27.15